Time;durP1;ratioP1;P1;durP2;ratioP2;P2;SDS_P1;SDS_P2;PMS_P1;PMS_P2;Temp;Humidity;BMP_temperature;BMP_pressure;BME280_temperature;BME280_humidity;BME280_pressure;Samples;Min_cycle;Max_cycle;Signal;HPM_P1;HPM_P2
2023/06/21 00:00:27;;;;;;;5.65;3.53;;;;;;;26.42;36.37;96824.84;5033869;28;20467;-26
2023/06/21 00:02:53;;;;;;;4.85;3.60;;;;;;;26.44;36.50;96820.25;5034254;28;20029;-27
2023/06/21 00:05:18;;;;;;;5.20;3.78;;;;;;;26.40;36.77;96824.59;5034652;28;20056;-27
2023/06/21 00:07:44;;;;;;;3.88;3.33;;;;;;;26.36;36.66;96829.69;5042862;28;20053;-27
2023/06/21 00:10:10;;;;;;;6.43;3.55;;;;;;;26.46;36.76;96825.28;5033851;28;20079;-26
2023/06/21 00:12:36;;;;;;;5.18;3.45;;;;;;;26.35;36.44;96828.19;5033809;28;20459;-27
2023/06/21 00:15:03;;;;;;;6.03;3.38;;;;;;;26.50;36.26;96822.97;5033436;28;20028;-27
2023/06/21 00:17:28;;;;;;;5.93;3.30;;;;;;;26.55;35.96;96819.38;5039993;28;20370;-27
2023/06/21 00:19:55;;;;;;;6.40;3.80;;;;;;;26.31;36.17;96819.41;5036034;28;20026;-27
2023/06/21 00:22:23;;;;;;;4.90;3.53;;;;;;;26.38;36.69;96818.81;5034044;28;20045;-26
2023/06/21 00:24:49;;;;;;;5.50;3.60;;;;;;;26.27;36.40;96818.91;5033603;28;20025;-27
2023/06/21 00:27:17;;;;;;;6.43;3.92;;;;;;;26.24;36.43;96831.81;5034192;28;20020;-27
2023/06/21 00:29:42;;;;;;;4.82;3.75;;;;;;;26.20;36.08;96830.63;5033224;28;20061;-26
2023/06/21 00:32:08;;;;;;;6.00;3.53;;;;;;;26.10;36.11;96822.59;5033639;28;20431;-28
2023/06/21 00:34:34;;;;;;;5.57;3.72;;;;;;;26.24;36.43;96825.50;5033231;28;20025;-28
2023/06/21 00:37:02;;;;;;;4.68;3.75;;;;;;;26.28;36.48;96826.00;5033477;28;20025;-26
2023/06/21 00:39:28;;;;;;;4.88;3.58;;;;;;;26.34;36.37;96818.34;5034064;28;20041;-26
2023/06/21 00:41:54;;;;;;;4.47;3.40;;;;;;;26.17;37.26;96829.63;5038443;28;20386;-27
2023/06/21 00:44:19;;;;;;;5.95;3.70;;;;;;;26.44;36.84;96816.72;5035313;28;20387;-26
2023/06/21 00:46:44;;;;;;;4.28;3.85;;;;;;;26.41;36.83;96820.53;5038782;28;20104;-27
2023/06/21 00:49:10;;;;;;;8.25;3.72;;;;;;;26.57;36.96;96822.38;5046605;28;20467;-26
2023/06/21 00:51:38;;;;;;;4.68;3.50;;;;;;;26.48;37.09;96817.91;5034342;28;20048;-27
2023/06/21 00:54:05;;;;;;;5.05;3.53;;;;;;;26.51;36.86;96813.34;5038923;28;20110;-27
2023/06/21 00:56:33;;;;;;;4.95;3.60;;;;;;;26.59;37.05;96816.28;5033199;28;20032;-27
2023/06/21 00:58:58;;;;;;;4.78;3.50;;;;;;;26.56;36.87;96823.66;5033611;28;20028;-27
2023/06/21 01:01:26;;;;;;;3.70;3.20;;;;;;;26.52;36.42;96811.31;5033279;28;20029;-28
2023/06/21 01:03:52;;;;;;;5.45;3.30;;;;;;;26.52;36.84;96812.06;5033550;28;20039;-26
2023/06/21 01:06:27;;;;;;;5.18;3.17;;;;;;;26.61;36.49;96813.72;5032927;28;20013;-26
2023/06/21 01:09:01;;;;;;;4.78;3.63;;;;;;;26.59;36.10;96814.25;5033322;28;20703;-27
2023/06/21 01:11:31;;;;;;;7.43;3.90;;;;;;;26.45;36.68;96805.09;5033374;28;20041;-26
2023/06/21 01:14:13;;;;;;;6.55;3.53;;;;;;;26.37;36.61;96811.72;5033170;28;20427;-28
2023/06/21 01:16:43;;;;;;;5.57;3.30;;;;;;;26.59;35.47;96814.25;5032988;28;20026;-26
2023/06/21 01:19:23;;;;;;;4.38;3.45;;;;;;;26.62;35.60;96812.44;5033047;28;20033;-27
2023/06/21 01:21:50;;;;;;;4.90;3.25;;;;;;;26.62;35.46;96815.22;5032702;28;20029;-26
2023/06/21 01:24:50;;;;;;;3.92;3.13;;;;;;;26.50;35.02;96811.09;5033151;28;20025;-27
2023/06/21 01:27:57;;;;;;;4.32;3.50;;;;;;;26.50;34.77;96799.97;5033152;28;20045;-26
2023/06/21 01:30:26;;;;;;;3.95;3.17;;;;;;;26.41;34.97;96801.09;5040475;28;20022;-26
2023/06/21 01:32:54;;;;;;;5.43;3.83;;;;;;;26.43;33.95;96815.97;5032901;28;20021;-27
2023/06/21 01:35:24;;;;;;;4.90;3.35;;;;;;;26.40;33.60;96803.09;5033081;28;20025;-27
2023/06/21 01:37:51;;;;;;;3.63;3.10;;;;;;;26.34;34.03;96805.19;5032798;28;20456;-26
2023/06/21 01:40:16;;;;;;;4.82;3.13;;;;;;;26.51;33.33;96805.00;5033889;28;20049;-26
2023/06/21 01:42:42;;;;;;;4.28;3.00;;;;;;;26.39;33.08;96803.63;5036345;28;20471;-27
2023/06/21 01:45:08;;;;;;;5.03;3.20;;;;;;;26.41;32.86;96810.19;5037104;28;20028;-26
2023/06/21 01:47:35;;;;;;;2.85;2.45;;;;;;;26.42;33.22;96808.91;5036357;28;20036;-26
2023/06/21 01:50:05;;;;;;;4.45;2.97;;;;;;;26.47;32.51;96807.31;5036233;28;20096;-28
2023/06/21 01:52:33;;;;;;;2.97;2.65;;;;;;;26.37;32.78;96811.72;5036415;28;20030;-26
2023/06/21 01:54:58;;;;;;;3.67;2.88;;;;;;;26.17;33.18;96803.84;5036191;28;20018;-29
2023/06/21 01:57:27;;;;;;;3.83;3.10;;;;;;;26.37;33.43;96800.63;5036523;28;20482;-26
2023/06/21 01:59:53;;;;;;;4.60;3.10;;;;;;;26.44;33.51;96803.56;5038686;28;20514;-27
2023/06/21 02:02:22;;;;;;;3.83;2.90;;;;;;;26.42;33.87;96791.47;5040625;28;20025;-27
2023/06/21 02:04:49;;;;;;;4.55;3.15;;;;;;;26.42;34.41;96808.16;5036007;28;20029;-27
2023/06/21 02:07:16;;;;;;;4.45;3.80;;;;;;;26.37;34.56;96806.19;5037998;28;20024;-26
2023/06/21 02:09:43;;;;;;;4.53;3.65;;;;;;;26.44;35.07;96808.38;5038405;28;20051;-26
2023/06/21 02:12:09;;;;;;;4.90;3.67;;;;;;;26.41;35.26;96806.63;5036007;28;20021;-27
2023/06/21 02:14:37;;;;;;;6.45;4.28;;;;;;;26.40;35.49;96800.31;5036103;28;20102;-26
2023/06/21 02:17:03;;;;;;;6.50;4.05;;;;;;;26.35;35.94;96803.91;5043325;28;20033;-26
2023/06/21 02:19:28;;;;;;;5.85;4.07;;;;;;;26.42;36.04;96799.81;5041538;28;20096;-27
2023/06/21 02:21:54;;;;;;;5.15;3.97;;;;;;;26.47;36.07;96798.97;5038224;28;20029;-26
2023/06/21 02:24:19;;;;;;;6.35;4.15;;;;;;;26.37;36.08;96800.63;5035649;28;20021;-26
2023/06/21 02:26:45;;;;;;;5.50;3.78;;;;;;;26.17;35.74;96806.63;5041705;28;20467;-26
2023/06/21 02:29:10;;;;;;;8.18;3.90;;;;;;;26.19;35.95;96806.88;5036904;28;20021;-26
2023/06/21 02:31:36;;;;;;;4.68;3.75;;;;;;;26.29;36.53;96799.69;5035758;28;20386;-27
2023/06/21 02:34:01;;;;;;;7.38;3.78;;;;;;;26.27;36.64;96802.97;5048682;28;20091;-26
2023/06/21 02:36:26;;;;;;;5.47;3.58;;;;;;;26.34;36.74;96807.97;5035277;28;20028;-28
2023/06/21 02:38:52;;;;;;;5.45;4.10;;;;;;;26.46;36.46;96808.59;5035361;28;20108;-28
2023/06/21 02:41:17;;;;;;;5.53;4.07;;;;;;;26.31;35.64;96808.28;5036219;28;20041;-27
2023/06/21 02:43:43;;;;;;;5.57;4.13;;;;;;;26.30;36.29;96812.34;5035749;28;20105;-27
2023/06/21 02:46:08;;;;;;;5.68;4.13;;;;;;;26.42;36.06;96810.94;5035410;28;20022;-26
2023/06/21 02:48:33;;;;;;;6.10;4.35;;;;;;;26.19;36.34;96818.00;5035317;28;20030;-26
2023/06/21 02:50:59;;;;;;;6.95;4.10;;;;;;;26.43;35.72;96812.44;5034605;28;20021;-26
2023/06/21 02:53:26;;;;;;;5.20;4.20;;;;;;;26.36;36.43;96815.78;5035313;28;20021;-27
2023/06/21 02:55:51;;;;;;;4.93;3.80;;;;;;;26.29;35.98;96819.16;5040061;28;20057;-27
2023/06/21 02:58:16;;;;;;;5.38;3.85;;;;;;;26.39;36.47;96815.50;5035273;28;20059;-26
2023/06/21 03:00:42;;;;;;;5.45;3.65;;;;;;;26.44;35.78;96816.72;5035504;28;20029;-26
2023/06/21 03:03:07;;;;;;;4.85;3.80;;;;;;;26.18;35.60;96816.47;5035333;28;20026;-27
2023/06/21 03:05:37;;;;;;;6.82;3.72;;;;;;;26.30;35.09;96817.91;5035059;28;20025;-27
2023/06/21 03:08:04;;;;;;;8.05;3.50;;;;;;;26.36;34.59;96813.00;5042327;28;20029;-26
2023/06/21 03:10:32;;;;;;;4.30;3.40;;;;;;;26.27;34.55;96830.03;5034991;28;20486;-26
2023/06/21 03:12:58;;;;;;;5.25;3.28;;;;;;;26.33;35.01;96825.94;5034920;28;20479;-27
2023/06/21 03:15:23;;;;;;;4.75;3.22;;;;;;;26.30;34.17;96818.66;5034890;28;20033;-27
2023/06/21 03:17:49;;;;;;;4.85;3.35;;;;;;;26.37;34.96;96818.06;5034648;28;20159;-27
2023/06/21 03:20:14;;;;;;;5.53;3.22;;;;;;;26.26;34.97;96829.28;5034886;28;20025;-27
2023/06/21 03:22:43;;;;;;;4.95;3.65;;;;;;;26.18;35.14;96824.81;5034790;28;20025;-26
2023/06/21 03:25:10;;;;;;;5.50;3.20;;;;;;;26.26;34.42;96828.50;5034666;28;20037;-26
2023/06/21 03:27:36;;;;;;;3.42;3.00;;;;;;;26.16;33.77;96822.56;5034422;28;20120;-26
2023/06/21 03:30:02;;;;;;;3.10;2.70;;;;;;;26.17;34.00;96828.88;5034342;28;20053;-30
2023/06/21 03:32:28;;;;;;;4.00;3.25;;;;;;;26.19;33.93;96823.53;5041294;28;20075;-27
2023/06/21 03:34:53;;;;;;;4.82;3.35;;;;;;;26.35;33.59;96836.53;5034788;28;20021;-27
2023/06/21 03:37:19;;;;;;;4.80;3.13;;;;;;;26.22;33.23;96836.38;5034362;28;20102;-26
2023/06/21 03:39:44;;;;;;;5.00;3.67;;;;;;;26.05;33.95;96836.56;5034752;28;20037;-27
2023/06/21 03:42:10;;;;;;;3.63;3.20;;;;;;;25.99;34.04;96835.84;5034120;28;20021;-27
2023/06/21 03:44:36;;;;;;;3.40;3.00;;;;;;;26.24;34.07;96831.06;5034132;28;20048;-26
2023/06/21 03:47:02;;;;;;;5.10;3.08;;;;;;;26.11;33.97;96832.44;5034440;28;20021;-27
2023/06/21 03:49:27;;;;;;;5.82;3.53;;;;;;;26.23;33.60;96824.00;5034515;28;20040;-26
2023/06/21 03:51:53;;;;;;;4.28;3.30;;;;;;;26.09;33.89;96828.69;5034645;28;20017;-27
2023/06/21 03:54:18;;;;;;;4.75;2.92;;;;;;;26.22;33.86;96825.25;5033974;28;20025;-26
2023/06/21 03:56:44;;;;;;;3.35;2.88;;;;;;;26.23;34.83;96827.53;5034143;28;20033;-27
2023/06/21 03:59:09;;;;;;;3.67;2.95;;;;;;;26.29;34.35;96827.50;5038112;28;20368;-27
2023/06/21 04:01:35;;;;;;;4.30;3.40;;;;;;;26.04;34.44;96830.25;5036194;28;20029;-26
2023/06/21 04:04:00;;;;;;;5.50;3.33;;;;;;;26.13;35.34;96829.16;5033407;28;20036;-27
2023/06/21 04:06:26;;;;;;;7.15;3.42;;;;;;;26.09;35.85;96829.44;5034025;28;20044;-26
2023/06/21 04:08:51;;;;;;;5.28;2.90;;;;;;;26.17;35.74;96826.84;5034068;28;20025;-27
2023/06/21 04:11:17;;;;;;;5.32;3.53;;;;;;;26.01;35.58;96828.50;5033943;28;20025;-27
2023/06/21 04:13:42;;;;;;;6.95;3.28;;;;;;;26.08;35.08;96827.19;5033787;28;20108;-27
2023/06/21 04:16:08;;;;;;;4.60;3.22;;;;;;;26.07;35.44;96822.91;5041745;28;20088;-27
2023/06/21 04:18:33;;;;;;;5.25;3.17;;;;;;;26.18;35.02;96833.16;5033518;28;20364;-26
2023/06/21 04:20:59;;;;;;;4.22;3.70;;;;;;;26.17;35.27;96831.66;5034198;28;20021;-26
2023/06/21 04:23:26;;;;;;;4.82;3.10;;;;;;;26.14;34.62;96839.00;5034050;28;20463;-28
2023/06/21 04:25:51;;;;;;;6.40;3.10;;;;;;;26.16;34.86;96839.25;5033392;28;20387;-27
2023/06/21 04:28:17;;;;;;;3.03;2.63;;;;;;;26.22;35.36;96844.72;5033627;28;20028;-27
2023/06/21 04:30:42;;;;;;;5.65;3.30;;;;;;;26.22;34.57;96833.59;5033526;28;20375;-27
2023/06/21 04:33:08;;;;;;;7.43;3.30;;;;;;;26.15;34.38;96831.41;5033450;28;20453;-26
2023/06/21 04:35:33;;;;;;;4.95;3.00;;;;;;;26.06;34.76;96833.28;5033668;28;20029;-28
2023/06/21 04:38:00;;;;;;;4.65;3.20;;;;;;;26.01;34.16;96828.50;5033444;28;20025;-26
2023/06/21 04:40:25;;;;;;;5.30;3.55;;;;;;;25.82;33.84;96822.13;5040340;28;20072;-27
2023/06/21 04:42:54;;;;;;;3.60;2.65;;;;;;;25.93;34.20;96819.25;5033286;28;20061;-28
2023/06/21 04:45:20;;;;;;;3.80;2.85;;;;;;;26.07;34.04;96823.66;5033433;28;20033;-26
2023/06/21 04:47:48;;;;;;;4.90;3.60;;;;;;;26.18;33.65;96825.56;5033293;28;20030;-26
2023/06/21 04:50:15;;;;;;;9.02;3.28;;;;;;;26.10;33.64;96825.38;5037385;28;20074;-27
2023/06/21 04:52:40;;;;;;;4.90;3.00;;;;;;;25.88;34.45;96822.81;5033900;28;20060;-27
2023/06/21 04:55:07;;;;;;;8.10;3.35;;;;;;;26.10;34.42;96819.06;5033765;28;20371;-27
2023/06/21 04:57:34;;;;;;;4.20;3.10;;;;;;;25.85;35.24;96818.28;5033650;28;20378;-26
2023/06/21 05:00:06;;;;;;;4.00;3.28;;;;;;;26.21;34.45;96827.28;5033433;28;20024;-26
2023/06/21 05:02:31;;;;;;;6.20;3.30;;;;;;;26.08;35.23;96825.19;5033359;28;20139;-26
2023/06/21 05:04:57;;;;;;;3.92;2.92;;;;;;;25.81;36.17;96834.53;5047004;28;20108;-27
2023/06/21 05:07:22;;;;;;;5.32;3.40;;;;;;;26.10;35.68;96828.16;5033073;28;20021;-27
2023/06/21 05:09:48;;;;;;;5.40;3.58;;;;;;;25.95;36.20;96832.63;5033716;28;20374;-27
2023/06/21 05:12:13;;;;;;;8.52;3.85;;;;;;;25.97;36.53;96824.50;5033415;28;20079;-26
2023/06/21 05:14:39;;;;;;;8.77;3.30;;;;;;;25.98;36.81;96829.53;5033969;28;20025;-27
2023/06/21 05:17:04;;;;;;;7.88;3.72;;;;;;;26.12;36.76;96830.44;5037144;28;20032;-27
2023/06/21 05:19:30;;;;;;;4.00;3.30;;;;;;;26.07;37.17;96834.03;5036911;28;20031;-26
2023/06/21 05:21:55;;;;;;;9.77;3.75;;;;;;;26.01;37.80;96833.31;5038101;28;20029;-26
2023/06/21 05:24:21;;;;;;;4.75;3.03;;;;;;;26.17;37.31;96840.00;5036858;28;20013;-27
2023/06/21 05:26:46;;;;;;;5.00;3.47;;;;;;;26.22;37.62;96841.94;5037323;28;20025;-26
2023/06/21 05:29:12;;;;;;;4.88;3.40;;;;;;;26.17;37.51;96837.97;5036794;28;20029;-26
2023/06/21 05:31:41;;;;;;;6.32;3.88;;;;;;;26.18;38.04;96838.72;5036865;28;20454;-27
2023/06/21 05:34:06;;;;;;;5.45;3.50;;;;;;;26.16;37.95;96842.00;5036822;28;20430;-26
2023/06/21 05:36:32;;;;;;;6.07;3.60;;;;;;;26.23;37.91;96849.78;5036480;28;20018;-26
2023/06/21 05:38:57;;;;;;;4.80;3.40;;;;;;;26.17;38.51;96845.56;5037105;28;20025;-26
2023/06/21 05:41:23;;;;;;;5.15;3.85;;;;;;;26.20;38.08;96836.19;5037956;28;20384;-27
2023/06/21 05:43:48;;;;;;;48.47;30.40;;;;;;;25.97;38.59;96838.41;5042689;28;20021;-27
2023/06/21 05:46:14;;;;;;;156.02;67.15;;;;;;;26.17;37.99;96848.31;5036351;28;20025;-26
2023/06/21 05:48:39;;;;;;;53.33;26.33;;;;;;;26.13;37.81;96845.84;5036467;28;20403;-28
2023/06/21 05:51:04;;;;;;;30.05;16.23;;;;;;;26.36;37.47;96843.59;5036625;28;20426;-26
2023/06/21 05:53:30;;;;;;;22.42;12.18;;;;;;;26.29;38.11;96841.41;5036522;28;20368;-26
2023/06/21 05:55:56;;;;;;;24.50;12.88;;;;;;;26.38;38.36;96841.06;5036488;28;20022;-26
2023/06/21 05:58:22;;;;;;;16.60;8.35;;;;;;;26.30;38.02;96846.44;5043290;28;20186;-26
2023/06/21 06:00:48;;;;;;;15.38;8.38;;;;;;;26.35;37.76;96850.44;5043350;28;20082;-27
2023/06/21 06:03:13;;;;;;;11.50;6.50;;;;;;;26.20;38.02;96847.28;5036785;28;20043;-26
2023/06/21 06:05:39;;;;;;;11.27;6.55;;;;;;;26.29;37.35;96844.19;5036125;28;20082;-27
2023/06/21 06:08:04;;;;;;;9.80;5.22;;;;;;;26.27;38.09;96853.03;5038861;28;20021;-26
2023/06/21 06:10:30;;;;;;;11.27;6.03;;;;;;;26.26;37.40;96851.50;5040225;28;20021;-27
2023/06/21 06:12:55;;;;;;;8.88;5.05;;;;;;;26.26;38.04;96856.31;5036504;28;20032;-26
2023/06/21 06:15:20;;;;;;;6.30;4.03;;;;;;;26.36;37.97;96863.81;5035819;28;20028;-29
2023/06/21 06:17:46;;;;;;;8.73;4.22;;;;;;;26.33;37.96;96861.34;5035851;28;20028;-27
2023/06/21 06:20:12;;;;;;;6.57;4.47;;;;;;;26.33;37.88;96862.09;5043513;28;20459;-26
2023/06/21 06:22:39;;;;;;;7.28;4.07;;;;;;;26.49;38.17;96863.19;5038196;28;20024;-26
2023/06/21 06:25:05;;;;;;;5.53;3.78;;;;;;;26.51;38.63;96866.19;5037627;28;20485;-26
2023/06/21 06:27:31;;;;;;;6.22;4.05;;;;;;;26.49;38.89;96865.97;5035251;28;20360;-26
2023/06/21 06:29:57;;;;;;;5.65;4.43;;;;;;;26.42;38.67;96869.34;5035635;28;20031;-27
2023/06/21 06:32:22;;;;;;;5.18;3.92;;;;;;;26.49;39.11;96868.75;5035610;28;20028;-26
2023/06/21 06:34:48;;;;;;;6.78;4.00;;;;;;;26.58;38.40;96873.94;5035562;28;20471;-26
2023/06/21 06:37:13;;;;;;;5.72;3.55;;;;;;;26.57;38.33;96872.47;5035638;28;20021;-26
2023/06/21 06:39:39;;;;;;;5.72;3.63;;;;;;;26.56;38.62;96868.16;5034944;28;20487;-26
2023/06/21 06:42:06;;;;;;;5.35;3.60;;;;;;;26.62;38.88;96871.63;5035826;28;20026;-26
2023/06/21 06:44:31;;;;;;;4.78;3.38;;;;;;;26.56;38.71;96876.50;5035707;28;20057;-26
2023/06/21 06:46:57;;;;;;;5.63;3.60;;;;;;;26.53;38.48;96872.00;5035399;28;20052;-26
2023/06/21 06:49:22;;;;;;;4.80;3.53;;;;;;;26.54;38.45;96873.50;5035488;28;20017;-27
2023/06/21 06:51:48;;;;;;;6.30;3.95;;;;;;;26.63;38.67;96873.13;5040224;28;20494;-26
2023/06/21 06:54:13;;;;;;;6.22;3.75;;;;;;;26.71;38.37;96860.13;5035412;28;20463;-26
2023/06/21 06:56:39;;;;;;;5.28;3.17;;;;;;;26.63;38.87;96864.78;5035616;28;20083;-26
2023/06/21 06:59:04;;;;;;;4.03;3.35;;;;;;;26.67;38.52;96873.59;5034957;28;20020;-26
2023/06/21 07:01:30;;;;;;;5.63;3.30;;;;;;;26.78;38.17;96867.91;5042184;28;20156;-26
2023/06/21 07:03:56;;;;;;;5.68;3.03;;;;;;;26.77;38.78;96871.97;5034837;28;20021;-26
2023/06/21 07:06:21;;;;;;;4.18;3.33;;;;;;;26.76;38.28;96876.00;5034994;28;20029;-26
2023/06/21 07:08:47;;;;;;;6.88;2.90;;;;;;;26.70;38.18;96871.81;5035211;28;20029;-29
2023/06/21 07:11:12;;;;;;;4.53;3.08;;;;;;;26.60;38.32;96878.97;5035314;28;20026;-26
2023/06/21 07:13:38;;;;;;;4.03;3.10;;;;;;;26.65;38.09;96875.41;5041846;28;20362;-26
2023/06/21 07:16:03;;;;;;;5.78;3.45;;;;;;;26.76;37.77;96880.81;5034876;28;20028;-26
2023/06/21 07:18:29;;;;;;;4.20;3.20;;;;;;;26.66;37.56;96877.66;5034767;28;20040;-26
2023/06/21 07:20:54;;;;;;;5.80;3.15;;;;;;;26.75;36.72;96876.53;5035398;28;20017;-26
2023/06/21 07:23:20;;;;;;;4.72;3.00;;;;;;;26.50;37.39;96875.81;5034554;28;20072;-26
2023/06/21 07:25:45;;;;;;;4.32;3.10;;;;;;;26.50;37.91;96875.81;5034640;28;20029;-26
2023/06/21 07:28:11;;;;;;;4.45;3.28;;;;;;;26.57;37.43;96875.25;5041542;28;20033;-26
2023/06/21 07:30:37;;;;;;;7.18;3.35;;;;;;;26.61;37.97;96877.72;5034883;28;20025;-26
2023/06/21 07:33:03;;;;;;;6.40;3.50;;;;;;;26.66;38.11;96871.34;5034522;28;20025;-26
2023/06/21 07:35:29;;;;;;;5.38;3.13;;;;;;;26.66;37.59;96879.69;5041841;28;20079;-26
2023/06/21 07:37:55;;;;;;;5.57;2.90;;;;;;;26.58;37.93;96873.22;5034374;28;20025;-26
2023/06/21 07:40:21;;;;;;;7.20;3.13;;;;;;;26.69;37.78;96868.28;5034072;28;20056;-26
2023/06/21 07:42:46;;;;;;;4.03;2.78;;;;;;;26.63;37.03;96872.38;5034466;28;20108;-26
2023/06/21 07:45:11;;;;;;;4.97;3.17;;;;;;;26.57;37.20;96868.91;5034373;28;20463;-26
2023/06/21 07:47:37;;;;;;;7.75;3.15;;;;;;;26.76;37.34;96873.22;5041473;28;20029;-26
2023/06/21 07:50:04;;;;;;;5.25;3.25;;;;;;;26.63;37.38;96873.13;5034263;28;20021;-26
2023/06/21 07:52:29;;;;;;;4.88;2.97;;;;;;;26.50;37.60;96872.28;5033769;28;20021;-29
2023/06/21 07:54:55;;;;;;;6.20;3.53;;;;;;;26.66;36.47;96872.09;5034064;28;20467;-26
2023/06/21 07:57:20;;;;;;;5.57;3.17;;;;;;;26.60;36.36;96871.38;5034090;28;20409;-26
2023/06/21 07:59:46;;;;;;;5.72;2.70;;;;;;;26.70;36.74;96861.44;5034390;28;20462;-26
2023/06/21 08:02:17;;;;;;;5.38;3.00;;;;;;;26.70;36.60;96866.25;5045941;28;20036;-27
2023/06/21 08:04:45;;;;;;;4.90;2.97;;;;;;;26.60;36.89;96874.16;5034265;28;20018;-28
2023/06/21 08:07:12;;;;;;;2.90;2.60;;;;;;;26.67;36.83;96876.38;5039620;28;20025;-26
2023/06/21 08:09:38;;;;;;;3.15;2.83;;;;;;;26.66;37.29;96871.34;5033635;28;20048;-26
2023/06/21 08:12:04;;;;;;;5.07;3.13;;;;;;;26.63;37.40;96877.94;5033948;28;20029;-26
2023/06/21 08:14:29;;;;;;;7.35;2.80;;;;;;;26.73;37.08;96863.16;5033716;28;20039;-26
2023/06/21 08:16:55;;;;;;;5.82;2.90;;;;;;;26.64;37.14;96877.41;5040648;28;20072;-26
2023/06/21 08:19:20;;;;;;;6.22;2.90;;;;;;;26.63;36.08;96872.38;5034078;28;20075;-26
2023/06/21 08:21:46;;;;;;;3.70;2.75;;;;;;;26.80;35.91;96878.50;5034464;28;20382;-26
2023/06/21 08:24:11;;;;;;;5.25;2.90;;;;;;;26.63;35.82;96875.16;5033473;28;20025;-26
2023/06/21 08:26:37;;;;;;;3.55;3.08;;;;;;;26.69;35.44;96871.06;5033605;28;20028;-26
2023/06/21 08:29:02;;;;;;;4.65;3.13;;;;;;;26.78;36.18;96867.16;5038154;28;20024;-27
2023/06/21 08:31:28;;;;;;;4.30;3.03;;;;;;;26.70;36.37;96872.56;5036558;28;20020;-26
2023/06/21 08:33:53;;;;;;;6.63;3.00;;;;;;;26.78;35.80;96875.50;5037527;28;20025;-26
2023/06/21 08:36:19;;;;;;;3.80;3.13;;;;;;;26.85;35.73;96874.88;5033471;28;20028;-26
2023/06/21 08:38:45;;;;;;;6.07;2.97;;;;;;;26.82;35.72;96875.97;5033539;28;20049;-27
2023/06/21 08:41:11;;;;;;;4.82;3.10;;;;;;;26.87;35.71;96877.16;5032927;28;20048;-26
2023/06/21 08:43:37;;;;;;;5.15;3.05;;;;;;;26.84;34.87;96881.72;5039662;28;20043;-26
2023/06/21 08:46:06;;;;;;;4.45;3.30;;;;;;;26.74;35.10;96886.91;5033472;28;20100;-26
2023/06/21 08:48:32;;;;;;;4.78;3.33;;;;;;;26.84;35.31;96881.72;5033492;28;20021;-26
2023/06/21 08:51:04;;;;;;;4.85;3.10;;;;;;;26.76;35.42;96892.72;5033371;28;20394;-26
2023/06/21 08:53:49;;;;;;;5.40;3.08;;;;;;;26.90;35.83;96884.47;5033180;28;20036;-26
2023/06/21 08:56:20;;;;;;;5.00;3.17;;;;;;;26.82;35.33;96882.28;5033221;28;20036;-26
2023/06/21 08:58:54;;;;;;;3.83;3.20;;;;;;;26.89;35.40;96886.50;5032971;28;20100;-27
2023/06/21 09:01:23;;;;;;;5.03;3.05;;;;;;;26.96;35.16;96893.50;5033191;28;20021;-26
2023/06/21 09:03:56;;;;;;;6.70;3.10;;;;;;;26.91;34.98;96888.75;5033680;28;20022;-26
2023/06/21 09:06:24;;;;;;;5.35;3.20;;;;;;;26.85;35.19;96888.81;5033339;28;20029;-26
2023/06/21 09:08:52;;;;;;;4.22;2.97;;;;;;;26.99;35.08;96884.88;5033585;28;20075;-26
2023/06/21 09:11:20;;;;;;;4.32;2.95;;;;;;;26.99;35.20;96887.66;5032952;28;20013;-26
2023/06/21 09:13:47;;;;;;;3.10;2.75;;;;;;;26.94;35.54;96890.50;5046544;28;20021;-27
2023/06/21 09:16:13;;;;;;;4.38;3.05;;;;;;;26.99;35.33;96887.66;5033008;28;20043;-26
2023/06/21 09:18:40;;;;;;;4.05;3.20;;;;;;;26.97;35.59;96889.44;5033134;28;20052;-26
2023/06/21 09:21:08;;;;;;;3.80;3.05;;;;;;;27.01;36.03;96887.88;5033925;28;20038;-26
2023/06/21 09:23:39;;;;;;;6.22;3.72;;;;;;;27.01;35.90;96889.91;5033200;28;20032;-26
2023/06/21 09:26:05;;;;;;;5.93;3.03;;;;;;;27.08;35.70;96883.72;5033061;28;20026;-26
2023/06/21 09:28:31;;;;;;;3.97;3.05;;;;;;;27.07;35.26;96896.16;5032837;28;20025;-26
2023/06/21 09:30:57;;;;;;;5.45;2.80;;;;;;;27.10;35.27;96889.53;5033006;28;20482;-26
2023/06/21 09:33:25;;;;;;;5.03;3.13;;;;;;;27.06;35.61;96884.28;5032906;28;20112;-26
2023/06/21 09:35:51;;;;;;;5.47;3.35;;;;;;;27.09;35.62;96890.81;5033143;28;20109;-26
2023/06/21 09:38:24;;;;;;;4.15;3.28;;;;;;;27.09;35.15;96885.25;5040052;28;20112;-26
2023/06/21 09:40:49;;;;;;;;;;;;;;;27.12;35.06;96878.63;5040781;28;20041;-26
2023/06/21 09:43:15;;;;;;;4.00;3.17;;;;;;;27.12;34.73;96878.63;5033071;28;19909;-27
2023/06/21 09:45:41;;;;;;;5.05;3.08;;;;;;;27.15;34.51;96886.69;5032714;28;20029;-26
2023/06/21 09:48:06;;;;;;;6.10;3.00;;;;;;;27.22;34.33;96876.97;5033076;28;20401;-26
2023/06/21 09:50:36;;;;;;;3.90;2.92;;;;;;;27.24;34.51;96882.00;5032691;28;20027;-26
2023/06/21 09:53:02;;;;;;;6.43;3.00;;;;;;;27.19;33.92;96880.81;5032952;28;20019;-26
2023/06/21 09:55:27;;;;;;;8.68;2.88;;;;;;;27.29;33.79;96870.06;5032803;28;20443;-26
2023/06/21 09:57:52;;;;;;;4.60;2.95;;;;;;;27.27;34.02;96872.59;5032917;28;20420;-26
2023/06/21 10:00:18;;;;;;;6.47;3.13;;;;;;;27.31;34.22;96884.97;5032730;28;20017;-26
2023/06/21 10:02:44;;;;;;;4.72;3.08;;;;;;;27.31;34.38;96879.38;5035864;28;20033;-26
2023/06/21 10:05:19;;;;;;;8.38;3.75;;;;;;;27.33;34.57;96879.59;5036395;28;20017;-26
2023/06/21 10:07:46;;;;;;;4.03;2.90;;;;;;;27.32;35.18;96874.56;5036340;28;20383;-26
2023/06/21 10:10:12;;;;;;;5.38;3.42;;;;;;;27.36;35.39;96884.09;5038551;28;20021;-26
2023/06/21 10:12:48;;;;;;;4.20;3.15;;;;;;;27.33;34.77;96890.72;5049699;28;20344;-26
2023/06/21 10:15:14;;;;;;;3.75;3.10;;;;;;;27.32;34.94;96892.03;5042519;28;20408;-26
2023/06/21 10:17:40;;;;;;;7.13;3.40;;;;;;;27.37;35.21;96890.44;5046760;28;20056;-27
2023/06/21 10:20:06;;;;;;;6.47;3.00;;;;;;;27.37;34.53;96893.97;5043966;28;20033;-26
2023/06/21 10:22:33;;;;;;;4.18;3.10;;;;;;;27.38;34.35;96895.47;5036313;28;20025;-26
2023/06/21 10:25:00;;;;;;;7.22;3.13;;;;;;;27.40;35.18;96886.59;5036336;28;20021;-26
2023/06/21 10:27:27;;;;;;;7.63;3.17;;;;;;;27.44;34.62;96890.59;5035588;28;20041;-27
2023/06/21 10:29:58;;;;;;;5.65;3.17;;;;;;;27.52;34.54;96888.69;5036107;28;20494;-26
2023/06/21 10:32:24;;;;;;;4.85;3.20;;;;;;;27.49;34.81;96884.19;5036276;28;20129;-26
2023/06/21 10:35:03;;;;;;;6.72;3.28;;;;;;;27.48;34.77;96891.03;5035424;28;20033;-26
2023/06/21 10:37:39;;;;;;;5.88;3.20;;;;;;;27.47;35.21;96892.31;5036097;28;20022;-29
2023/06/21 10:40:07;;;;;;;5.45;3.60;;;;;;;27.50;35.17;96896.81;5035366;28;20041;-26
2023/06/21 10:42:33;;;;;;;6.43;3.17;;;;;;;27.53;35.08;96892.22;5047139;28;20044;-26
2023/06/21 10:44:59;;;;;;;4.90;3.25;;;;;;;27.53;35.42;96887.41;5035688;28;20537;-26
2023/06/21 10:47:26;;;;;;;5.60;3.10;;;;;;;27.59;35.43;96892.16;5035627;28;20100;-26
2023/06/21 10:49:57;;;;;;;6.40;3.00;;;;;;;27.58;35.14;96885.09;5035320;28;20017;-26
2023/06/21 10:52:25;;;;;;;8.48;3.30;;;;;;;27.60;34.55;96890.88;5036122;28;20033;-26
2023/06/21 10:54:53;;;;;;;9.85;3.10;;;;;;;27.62;34.51;96896.69;5035516;28;20032;-26
2023/06/21 10:57:19;;;;;;;4.70;2.70;;;;;;;27.66;34.16;96891.56;5035439;28;20021;-26
2023/06/21 10:59:45;;;;;;;5.13;2.67;;;;;;;27.61;33.95;96895.19;5042810;28;20028;-26
2023/06/21 11:02:11;;;;;;;7.88;3.20;;;;;;;27.59;34.06;96901.28;5034970;28;20017;-26
2023/06/21 11:05:17;;;;;;;5.65;3.10;;;;;;;27.65;33.62;96901.97;5035570;28;20035;-26
2023/06/21 11:08:01;;;;;;;6.32;3.25;;;;;;;27.66;33.65;96897.91;5035064;28;20025;-26
2023/06/21 11:10:42;;;;;;;3.90;2.60;;;;;;;27.70;32.97;96892.00;5035165;28;20064;-26
2023/06/21 11:13:08;;;;;;;5.30;2.88;;;;;;;27.64;33.02;96894.13;5041877;28;20107;-26
2023/06/21 11:15:39;;;;;;;3.47;2.78;;;;;;;27.72;33.25;96892.22;5035044;28;20546;-27
2023/06/21 11:18:08;;;;;;;3.55;2.70;;;;;;;27.72;33.05;96889.44;5035428;28;20043;-26
2023/06/21 11:21:06;;;;;;;3.55;3.03;;;;;;;27.73;33.66;96890.94;5034884;28;20021;-26
2023/06/21 11:23:46;;;;;;;3.10;2.78;;;;;;;27.82;33.35;96893.31;5037725;28;20030;-26
2023/06/21 11:26:14;;;;;;;5.05;2.40;;;;;;;27.92;32.29;96900.03;5034531;28;20360;-26
2023/06/21 11:28:49;;;;;;;4.70;2.60;;;;;;;27.82;32.75;96890.53;5040942;28;20057;-27
2023/06/21 11:31:17;;;;;;;6.78;2.75;;;;;;;27.86;32.75;96893.78;5035101;28;20032;-26
2023/06/21 11:33:47;;;;;;;5.22;2.95;;;;;;;27.87;32.39;96892.50;5034575;28;20025;-26